Time;durP1;ratioP1;P1;durP2;ratioP2;P2;SDS_P1;SDS_P2;PMS_P1;PMS_P2;Temp;Humidity;BMP_temperature;BMP_pressure;BME280_temperature;BME280_humidity;BME280_pressure;Samples;Min_cycle;Max_cycle;Signal;HPM_P1;HPM_P2
2021/06/24 00:01:14;;;;;;;4.18;1.80;;;;;;;;;;5029237;28;20056;-67
2021/06/24 00:03:43;;;;;;;3.10;1.75;;;;;;;;;;5030801;28;20054;-66
2021/06/24 00:06:12;;;;;;;6.30;2.17;;;;;;;;;;5026977;28;20462;-67
2021/06/24 00:08:41;;;;;;;3.53;2.03;;;;;;;;;;5027342;28;20041;-66
2021/06/24 00:11:10;;;;;;;7.20;2.30;;;;;;;;;;5030306;28;20064;-67
2021/06/24 00:13:40;;;;;;;4.50;1.90;;;;;;;;;;5031298;28;20342;-67
2021/06/24 00:16:09;;;;;;;4.00;2.10;;;;;;;;;;5029903;28;20045;-67
2021/06/24 00:18:39;;;;;;;3.25;2.15;;;;;;;;;;5029981;28;20050;-66
2021/06/24 00:21:08;;;;;;;4.40;2.45;;;;;;;;;;5030151;28;20413;-66
2021/06/24 00:23:37;;;;;;;4.97;2.15;;;;;;;;;;5031059;28;20461;-67
2021/06/24 00:26:05;;;;;;;5.03;2.40;;;;;;;;;;5030098;28;20045;-67
2021/06/24 00:28:34;;;;;;;5.78;2.50;;;;;;;;;;5023248;28;20041;-67
2021/06/24 00:31:04;;;;;;;4.95;2.40;;;;;;;;;;5021473;28;20184;-67
2021/06/24 00:33:33;;;;;;;5.28;2.10;;;;;;;;;;5017313;28;20731;-67
2021/06/24 00:36:02;;;;;;;4.72;1.90;;;;;;;;;;5025769;28;20481;-67
2021/06/24 00:38:30;;;;;;;1.75;1.50;;;;;;;;;;5032916;28;20049;-67
2021/06/24 00:41:00;;;;;;;5.38;2.00;;;;;;;;;;5031593;28;20049;-67
2021/06/24 00:43:29;;;;;;;2.45;1.40;;;;;;;;;;5033115;28;20041;-67
2021/06/24 00:45:57;;;;;;;4.88;1.85;;;;;;;;;;5031519;28;20311;-67
2021/06/24 00:48:27;;;;;;;4.40;1.95;;;;;;;;;;5033262;28;20141;-67
2021/06/24 00:50:56;;;;;;;4.35;2.08;;;;;;;;;;5032442;28;20144;-67
2021/06/24 00:53:24;;;;;;;4.35;1.98;;;;;;;;;;5032754;28;20041;-67
2021/06/24 00:55:53;;;;;;;4.22;2.10;;;;;;;;;;5032209;28;20045;-68
2021/06/24 00:58:22;;;;;;;5.03;2.05;;;;;;;;;;5031870;28;20107;-67
2021/06/24 01:00:51;;;;;;;6.28;2.10;;;;;;;;;;5029784;28;20084;-67
2021/06/24 01:03:20;;;;;;;6.88;2.15;;;;;;;;;;5067343;22;20049;-61
2021/06/24 01:05:50;;;;;;;3.80;2.08;;;;;;;;;;5054364;28;20049;-61
2021/06/24 01:08:23;;;;;;;7.38;1.80;;;;;;;;;;5049381;28;20075;-61
2021/06/24 01:10:51;;;;;;;3.05;1.73;;;;;;;;;;5049065;28;20052;-61
2021/06/24 01:13:20;;;;;;;4.65;1.73;;;;;;;;;;5049923;28;20164;-61
2021/06/24 01:15:48;;;;;;;3.58;1.98;;;;;;;;;;5046806;28;20132;-61
2021/06/24 01:18:17;;;;;;;4.60;2.13;;;;;;;;;;5046753;28;20597;-60
2021/06/24 01:20:45;;;;;;;6.47;1.73;;;;;;;;;;5048397;28;20091;-61
2021/06/24 01:23:15;;;;;;;4.53;2.40;;;;;;;;;;5044458;28;20087;-61
2021/06/24 01:25:44;;;;;;;3.50;1.63;;;;;;;;;;5050617;28;20484;-61
2021/06/24 01:28:13;;;;;;;7.32;2.08;;;;;;;;;;5049570;28;20051;-61
2021/06/24 01:30:42;;;;;;;3.05;1.88;;;;;;;;;;5048117;28;20132;-60
2021/06/24 01:33:11;;;;;;;2.63;1.83;;;;;;;;;;5048160;28;20048;-61
2021/06/24 01:35:40;;;;;;;4.00;1.88;;;;;;;;;;5048022;28;20080;-59
2021/06/24 01:38:09;;;;;;;5.75;2.33;;;;;;;;;;5047166;28;20179;-60
2021/06/24 01:40:38;;;;;;;2.67;1.77;;;;;;;;;;5047674;28;20094;-60
2021/06/24 01:43:08;;;;;;;4.47;1.67;;;;;;;;;;5047442;28;20501;-60
2021/06/24 01:45:45;;;;;;;4.35;1.98;;;;;;;;;;5046088;28;20072;-60
2021/06/24 01:48:13;;;;;;;4.75;1.88;;;;;;;;;;5045255;28;20125;-60
2021/06/24 01:50:41;;;;;;;4.40;1.52;;;;;;;;;;5044958;28;20067;-61
2021/06/24 01:53:10;;;;;;;3.15;1.70;;;;;;;;;;5047119;28;20047;-60
2021/06/24 01:55:40;;;;;;;5.68;1.73;;;;;;;;;;5046266;28;20055;-60
2021/06/24 01:58:12;;;;;;;3.80;1.45;;;;;;;;;;5045163;28;20057;-60
2021/06/24 02:00:42;;;;;;;4.03;1.20;;;;;;;;;;5046329;28;20614;-60
2021/06/24 02:03:11;;;;;;;4.70;1.50;;;;;;;;;;5046870;28;20560;-60
2021/06/24 02:05:39;;;;;;;4.30;1.50;;;;;;;;;;5045030;28;20130;-60
2021/06/24 02:08:12;;;;;;;2.03;1.42;;;;;;;;;;5047487;28;20052;-60
2021/06/24 02:10:41;;;;;;;3.35;1.48;;;;;;;;;;5045748;28;20349;-61
2021/06/24 02:13:10;;;;;;;2.38;1.50;;;;;;;;;;5047519;28;20068;-61
2021/06/24 02:15:39;;;;;;;2.17;1.40;;;;;;;;;;5044250;28;20065;-61
2021/06/24 02:18:07;;;;;;;4.28;1.30;;;;;;;;;;5042947;28;20500;-61
2021/06/24 02:20:36;;;;;;;1.92;1.00;;;;;;;;;;5045977;28;20155;-61
2021/06/24 02:23:04;;;;;;;2.10;1.08;;;;;;;;;;5045801;28;20048;-60
2021/06/24 02:25:33;;;;;;;2.67;1.75;;;;;;;;;;5045817;28;20137;-60
2021/06/24 02:28:01;;;;;;;4.38;1.40;;;;;;;;;;5039426;28;20399;-60
2021/06/24 02:30:31;;;;;;;3.30;1.65;;;;;;;;;;5040325;28;20051;-61
2021/06/24 02:32:59;;;;;;;2.35;1.40;;;;;;;;;;5047050;28;20481;-60
2021/06/24 02:35:28;;;;;;;7.35;1.55;;;;;;;;;;5046275;28;20149;-61
2021/06/24 02:37:57;;;;;;;3.15;1.17;;;;;;;;;;5046523;28;20087;-61
2021/06/24 02:40:25;;;;;;;2.03;1.20;;;;;;;;;;5047212;28;20135;-60
2021/06/24 02:42:54;;;;;;;4.72;1.70;;;;;;;;;;5044579;28;20053;-61
2021/06/24 02:45:22;;;;;;;2.90;1.30;;;;;;;;;;5047358;28;20059;-60
2021/06/24 02:47:52;;;;;;;2.92;1.30;;;;;;;;;;5045315;28;20166;-60
2021/06/24 02:50:20;;;;;;;2.75;1.30;;;;;;;;;;5045685;28;20045;-60
2021/06/24 02:52:49;;;;;;;5.50;1.77;;;;;;;;;;5046976;28;20063;-60
2021/06/24 02:55:17;;;;;;;2.42;1.23;;;;;;;;;;5044388;28;20048;-60
2021/06/24 02:57:46;;;;;;;2.90;1.33;;;;;;;;;;5047346;28;20112;-60
2021/06/24 03:00:15;;;;;;;1.63;1.30;;;;;;;;;;5048022;28;20091;-60
2021/06/24 03:02:44;;;;;;;2.70;1.20;;;;;;;;;;5048312;28;20144;-60
2021/06/24 03:05:15;;;;;;;2.72;1.25;;;;;;;;;;5046299;28;20047;-61
2021/06/24 03:07:43;;;;;;;5.30;1.30;;;;;;;;;;5045102;28;20052;-61
2021/06/24 03:10:12;;;;;;;3.60;1.23;;;;;;;;;;5043953;28;20227;-61
2021/06/24 03:12:40;;;;;;;6.07;1.48;;;;;;;;;;5043886;28;20117;-61
2021/06/24 03:15:09;;;;;;;1.45;1.20;;;;;;;;;;5045691;28;20049;-61
2021/06/24 03:17:38;;;;;;;3.33;1.67;;;;;;;;;;5043113;28;20156;-60
2021/06/24 03:20:08;;;;;;;3.90;1.27;;;;;;;;;;5041935;28;20472;-60
2021/06/24 03:22:38;;;;;;;3.97;1.23;;;;;;;;;;5045150;28;20084;-61
2021/06/24 03:25:07;;;;;;;1.80;1.20;;;;;;;;;;5044839;28;20131;-60
2021/06/24 03:27:35;;;;;;;4.28;1.40;;;;;;;;;;5042175;28;20045;-61
2021/06/24 03:30:05;;;;;;;6.57;1.30;;;;;;;;;;5043541;28;20097;-60
2021/06/24 03:32:33;;;;;;;3.20;0.90;;;;;;;;;;5045343;28;20045;-60
2021/06/24 03:35:02;;;;;;;1.42;1.00;;;;;;;;;;5043835;28;20061;-60
2021/06/24 03:37:30;;;;;;;1.75;1.35;;;;;;;;;;5042992;28;20114;-60
2021/06/24 03:40:00;;;;;;;1.90;1.30;;;;;;;;;;5042696;28;20128;-61
2021/06/24 03:42:28;;;;;;;3.15;1.10;;;;;;;;;;5043795;28;20132;-61
2021/06/24 03:44:56;;;;;;;3.92;1.10;;;;;;;;;;5044006;28;20055;-61
2021/06/24 03:47:24;;;;;;;4.00;1.10;;;;;;;;;;5046482;28;20136;-60
2021/06/24 03:49:53;;;;;;;1.52;0.95;;;;;;;;;;5043718;28;20052;-61
2021/06/24 03:52:21;;;;;;;2.47;1.20;;;;;;;;;;5038724;28;20393;-61
2021/06/24 03:54:49;;;;;;;1.40;1.10;;;;;;;;;;5040908;28;20044;-61
2021/06/24 03:57:19;;;;;;;2.47;1.00;;;;;;;;;;5039185;28;20045;-61
2021/06/24 03:59:47;;;;;;;2.55;1.30;;;;;;;;;;5041241;28;20151;-61
2021/06/24 04:02:16;;;;;;;2.80;1.40;;;;;;;;;;5042738;28;20132;-61
2021/06/24 04:04:44;;;;;;;1.77;1.10;;;;;;;;;;5040684;28;20053;-60
2021/06/24 04:07:13;;;;;;;3.15;1.23;;;;;;;;;;5039299;28;20223;-61
2021/06/24 04:09:41;;;;;;;2.13;1.23;;;;;;;;;;5037132;28;20059;-61
2021/06/24 04:12:09;;;;;;;1.80;1.10;;;;;;;;;;5042086;28;20320;-61
2021/06/24 04:14:39;;;;;;;1.63;1.20;;;;;;;;;;5040865;28;20493;-60
2021/06/24 04:17:07;;;;;;;2.25;1.50;;;;;;;;;;5041581;28;20099;-60
2021/06/24 04:19:36;;;;;;;2.53;1.20;;;;;;;;;;5039760;28;20056;-60
2021/06/24 04:22:05;;;;;;;6.72;1.27;;;;;;;;;;5040061;28;20412;-60
2021/06/24 04:24:33;;;;;;;4.47;1.45;;;;;;;;;;5040448;28;20380;-60
2021/06/24 04:27:01;;;;;;;3.90;1.23;;;;;;;;;;5036040;28;20076;-60
2021/06/24 04:29:29;;;;;;;4.57;1.30;;;;;;;;;;5036951;28;20583;-60
2021/06/24 04:31:59;;;;;;;3.60;1.17;;;;;;;;;;5039875;28;20152;-60
2021/06/24 04:34:28;;;;;;;5.60;1.20;;;;;;;;;;5043419;28;20793;-60
2021/06/24 04:36:56;;;;;;;2.70;1.10;;;;;;;;;;5040649;28;20080;-60
2021/06/24 04:39:25;;;;;;;5.03;1.40;;;;;;;;;;5040255;28;20064;-61
2021/06/24 04:42:12;;;;;;;1.67;1.02;;;;;;;;;;5042188;28;20041;-60
2021/06/24 04:44:41;;;;;;;5.63;1.13;;;;;;;;;;5040950;28;20114;-61
2021/06/24 04:47:10;;;;;;;3.58;1.30;;;;;;;;;;5040696;28;20366;-61
2021/06/24 04:49:39;;;;;;;1.80;1.10;;;;;;;;;;5040829;28;20083;-61
2021/06/24 04:52:08;;;;;;;1.80;1.38;;;;;;;;;;5041292;28;20072;-60
2021/06/24 04:54:36;;;;;;;3.60;1.33;;;;;;;;;;5042099;28;20051;-60
2021/06/24 04:57:05;;;;;;;6.28;1.27;;;;;;;;;;5043661;28;20525;-60
2021/06/24 04:59:33;;;;;;;3.75;1.40;;;;;;;;;;5046310;28;20296;-60
2021/06/24 05:02:02;;;;;;;4.63;1.27;;;;;;;;;;5046166;28;20127;-61
2021/06/24 05:04:32;;;;;;;2.90;1.13;;;;;;;;;;5043725;28;20432;-60
2021/06/24 05:07:03;;;;;;;3.58;1.80;;;;;;;;;;5043674;28;20045;-60
2021/06/24 05:09:33;;;;;;;4.40;1.27;;;;;;;;;;5042688;28;20612;-60
2021/06/24 05:12:01;;;;;;;2.28;1.13;;;;;;;;;;5044651;28;20689;-60
2021/06/24 05:14:30;;;;;;;5.22;2.20;;;;;;;;;;5042362;28;20529;-60
2021/06/24 05:16:59;;;;;;;3.40;1.77;;;;;;;;;;5041297;28;20053;-61
2021/06/24 05:19:28;;;;;;;2.70;1.55;;;;;;;;;;5045670;28;20403;-60
2021/06/24 05:21:58;;;;;;;1.88;1.52;;;;;;;;;;5038556;28;20057;-61
2021/06/24 05:24:26;;;;;;;5.97;1.70;;;;;;;;;;5039276;28;20056;-61
2021/06/24 05:26:55;;;;;;;2.90;1.65;;;;;;;;;;5038531;28;20080;-61
2021/06/24 05:29:23;;;;;;;3.80;1.70;;;;;;;;;;5042417;28;20045;-61
2021/06/24 05:31:51;;;;;;;3.28;1.60;;;;;;;;;;5046364;28;20115;-61
2021/06/24 05:34:20;;;;;;;2.75;1.27;;;;;;;;;;5042823;28;20041;-61
2021/06/24 05:36:48;;;;;;;2.33;1.50;;;;;;;;;;5043134;28;20123;-60
2021/06/24 05:39:18;;;;;;;5.72;1.50;;;;;;;;;;5044179;28;20045;-61
2021/06/24 05:41:47;;;;;;;4.45;1.52;;;;;;;;;;5044084;28;20041;-61
2021/06/24 05:44:16;;;;;;;2.10;1.38;;;;;;;;;;5041616;28;20140;-61
2021/06/24 05:46:44;;;;;;;2.88;1.58;;;;;;;;;;5043330;28;20057;-61
2021/06/24 05:49:12;;;;;;;6.03;1.83;;;;;;;;;;5043626;28;20518;-61
2021/06/24 05:51:41;;;;;;;4.50;2.00;;;;;;;;;;5043217;28;20773;-61
2021/06/24 05:54:09;;;;;;;2.45;1.77;;;;;;;;;;5038296;28;20202;-60
2021/06/24 05:56:39;;;;;;;3.38;1.83;;;;;;;;;;5042468;28;20106;-60
2021/06/24 05:59:07;;;;;;;3.22;1.40;;;;;;;;;;5043199;28;20071;-61
2021/06/24 06:01:36;;;;;;;3.30;1.35;;;;;;;;;;5048110;28;20048;-61
2021/06/24 06:04:05;;;;;;;2.35;1.63;;;;;;;;;;5046321;28;20492;-61
2021/06/24 06:06:34;;;;;;;1.83;1.45;;;;;;;;;;5047211;28;20048;-60
2021/06/24 06:09:02;;;;;;;1.88;1.65;;;;;;;;;;5048234;28;20090;-61
2021/06/24 06:11:31;;;;;;;2.40;1.20;;;;;;;;;;5042780;28;20060;-61
2021/06/24 06:14:01;;;;;;;2.15;1.70;;;;;;;;;;5045820;28;20124;-60
2021/06/24 06:16:29;;;;;;;2.60;1.95;;;;;;;;;;5042640;28;20052;-60
2021/06/24 06:19:03;;;;;;;3.58;1.42;;;;;;;;;;5041013;28;20240;-60
2021/06/24 06:21:31;;;;;;;5.70;1.90;;;;;;;;;;5040109;28;20131;-60
2021/06/24 06:24:00;;;;;;;3.90;1.52;;;;;;;;;;5041336;28;20061;-60
2021/06/24 06:26:29;;;;;;;4.45;1.98;;;;;;;;;;5041025;28;20114;-61
2021/06/24 06:29:03;;;;;;;3.90;1.80;;;;;;;;;;5039149;28;20056;-60
2021/06/24 06:31:35;;;;;;;5.03;2.38;;;;;;;;;;5037288;28;20053;-61
2021/06/24 06:34:04;;;;;;;2.55;1.80;;;;;;;;;;5041521;28;20061;-61
2021/06/24 06:36:32;;;;;;;3.63;2.42;;;;;;;;;;5033381;28;20499;-61
2021/06/24 06:39:01;;;;;;;3.10;1.75;;;;;;;;;;5040243;28;20115;-61
2021/06/24 06:41:29;;;;;;;3.47;1.40;;;;;;;;;;5044387;28;20075;-61
2021/06/24 06:43:58;;;;;;;4.00;1.52;;;;;;;;;;5045619;28;20053;-60
2021/06/24 06:46:26;;;;;;;2.65;1.17;;;;;;;;;;5044158;28;20508;-61
2021/06/24 06:48:56;;;;;;;1.98;1.42;;;;;;;;;;5044364;28;20176;-61
2021/06/24 06:51:25;;;;;;;2.50;1.60;;;;;;;;;;5040344;28;20128;-61
2021/06/24 06:53:54;;;;;;;1.92;1.50;;;;;;;;;;5045061;28;20408;-61
2021/06/24 06:56:22;;;;;;;5.18;1.70;;;;;;;;;;5039881;28;20206;-60
2021/06/24 06:58:52;;;;;;;3.00;1.77;;;;;;;;;;5046726;28;20103;-61
2021/06/24 07:01:20;;;;;;;1.80;1.42;;;;;;;;;;5045642;28;20080;-61
2021/06/24 07:03:49;;;;;;;4.07;2.00;;;;;;;;;;5046551;28;20495;-61
2021/06/24 07:06:19;;;;;;;4.90;2.00;;;;;;;;;;5046051;28;20400;-61
2021/06/24 07:08:48;;;;;;;4.88;1.88;;;;;;;;;;5047557;28;20519;-61
2021/06/24 07:11:17;;;;;;;4.70;2.05;;;;;;;;;;5043699;28;20045;-61
2021/06/24 07:13:45;;;;;;;2.53;1.65;;;;;;;;;;5046554;28;20072;-61
2021/06/24 07:16:14;;;;;;;4.53;2.25;;;;;;;;;;5046200;28;20497;-60
2021/06/24 07:18:43;;;;;;;2.95;1.42;;;;;;;;;;5046802;28;20056;-60
2021/06/24 07:21:12;;;;;;;2.10;1.63;;;;;;;;;;5040585;28;20567;-60
2021/06/24 07:23:42;;;;;;;8.60;2.03;;;;;;;;;;5043914;28;20621;-61
2021/06/24 07:26:11;;;;;;;4.25;1.55;;;;;;;;;;5046329;28;20099;-60
2021/06/24 07:28:39;;;;;;;3.30;1.70;;;;;;;;;;5044513;28;20312;-60
2021/06/24 07:31:08;;;;;;;1.98;1.40;;;;;;;;;;5048316;28;20392;-61
2021/06/24 07:33:37;;;;;;;2.83;1.60;;;;;;;;;;5046810;28;20049;-61
2021/06/24 07:36:06;;;;;;;2.35;1.50;;;;;;;;;;5040186;28;20056;-61
2021/06/24 07:38:35;;;;;;;3.45;1.42;;;;;;;;;;5046300;28;20047;-61
2021/06/24 07:41:05;;;;;;;2.20;1.40;;;;;;;;;;5043886;28;20376;-61
2021/06/24 07:43:33;;;;;;;4.50;1.50;;;;;;;;;;5042368;28;21730;-63
2021/06/24 07:46:02;;;;;;;2.67;1.30;;;;;;;;;;5041738;28;20090;-63
2021/06/24 07:48:31;;;;;;;4.20;1.70;;;;;;;;;;5038321;28;20281;-63
2021/06/24 07:51:00;;;;;;;4.75;1.50;;;;;;;;;;5038707;28;20143;-63
2021/06/24 07:53:30;;;;;;;4.60;1.85;;;;;;;;;;5039103;28;20048;-63
2021/06/24 07:55:59;;;;;;;5.53;1.73;;;;;;;;;;5045621;28;20052;-63
2021/06/24 07:58:30;;;;;;;4.28;1.50;;;;;;;;;;5045565;28;20041;-63
2021/06/24 08:01:03;;;;;;;3.58;1.60;;;;;;;;;;5043879;28;20121;-63
2021/06/24 08:03:33;;;;;;;1.92;1.40;;;;;;;;;;5041731;28;20493;-63
2021/06/24 08:06:02;;;;;;;2.55;1.20;;;;;;;;;;5044476;28;20134;-63
2021/06/24 08:08:30;;;;;;;3.67;2.03;;;;;;;;;;5044297;28;20056;-63
2021/06/24 08:10:59;;;;;;;4.68;1.58;;;;;;;;;;5044581;28;20045;-63
2021/06/24 08:13:30;;;;;;;2.85;1.55;;;;;;;;;;5042049;28;20128;-63
2021/06/24 08:15:59;;;;;;;1.60;1.38;;;;;;;;;;5046951;28;20451;-63
2021/06/24 08:18:29;;;;;;;3.75;1.60;;;;;;;;;;5045448;28;20048;-62
2021/06/24 08:20:58;;;;;;;2.05;1.40;;;;;;;;;;5048286;28;20471;-63
2021/06/24 08:23:27;;;;;;;1.70;1.60;;;;;;;;;;5046290;28;20049;-63
2021/06/24 08:25:55;;;;;;;1.95;1.35;;;;;;;;;;5039614;28;20075;-63
2021/06/24 08:28:24;;;;;;;2.63;1.23;;;;;;;;;;5035339;28;20099;-63
2021/06/24 08:30:55;;;;;;;4.80;1.48;;;;;;;;;;5043672;28;20150;-63
2021/06/24 08:33:24;;;;;;;3.53;1.40;;;;;;;;;;5045724;28;20099;-63
2021/06/24 08:35:53;;;;;;;2.53;1.35;;;;;;;;;;5046425;28;20095;-63
2021/06/24 08:38:21;;;;;;;5.95;1.63;;;;;;;;;;5045329;28;20053;-63
2021/06/24 08:40:59;;;;;;;1.88;1.60;;;;;;;;;;5047224;28;20495;-63
2021/06/24 08:43:28;;;;;;;3.00;1.38;;;;;;;;;;5047733;28;20107;-63
2021/06/24 08:46:01;;;;;;;3.85;1.33;;;;;;;;;;5043498;28;20496;-61
2021/06/24 08:48:34;;;;;;;2.28;1.25;;;;;;;;;;5041331;28;20534;-62
2021/06/24 08:51:04;;;;;;;3.88;1.50;;;;;;;;;;5046645;28;20073;-62
2021/06/24 08:53:33;;;;;;;2.65;1.23;;;;;;;;;;5043615;28;20060;-62
2021/06/24 08:56:02;;;;;;;3.17;1.58;;;;;;;;;;5044106;28;20071;-62
2021/06/24 08:58:31;;;;;;;1.92;1.45;;;;;;;;;;5042649;28;20041;-63
2021/06/24 09:01:01;;;;;;;3.13;1.42;;;;;;;;;;5043822;28;20498;-62
2021/06/24 09:03:31;;;;;;;1.92;1.48;;;;;;;;;;5047881;28;20052;-62
2021/06/24 09:06:01;;;;;;;3.00;1.30;;;;;;;;;;5046563;28;20437;-63
2021/06/24 09:08:37;;;;;;;1.80;1.05;;;;;;;;;;5048689;28;20049;-63
2021/06/24 09:11:13;;;;;;;2.75;1.40;;;;;;;;;;5043883;28;20041;-61
2021/06/24 09:13:43;;;;;;;1.90;1.38;;;;;;;;;;5040227;28;20473;-62
2021/06/24 09:16:23;;;;;;;2.50;1.20;;;;;;;;;;5044708;28;20044;-63
2021/06/24 09:18:52;;;;;;;2.85;1.52;;;;;;;;;;5048548;28;20046;-64
2021/06/24 09:21:22;;;;;;;1.73;1.23;;;;;;;;;;5030739;28;20049;-64
2021/06/24 09:23:52;;;;;;;3.35;1.70;;;;;;;;;;5038707;28;20067;-64
2021/06/24 09:26:21;;;;;;;1.80;1.40;;;;;;;;;;5041087;28;20107;-64
2021/06/24 09:28:51;;;;;;;4.63;1.40;;;;;;;;;;5040403;28;20075;-64
2021/06/24 09:31:29;;;;;;;1.67;1.30;;;;;;;;;;5038126;28;20484;-64
2021/06/24 09:34:05;;;;;;;3.83;1.30;;;;;;;;;;5038261;28;20042;-65
2021/06/24 09:36:35;;;;;;;2.58;1.40;;;;;;;;;;5039459;28;20049;-65
2021/06/24 09:39:06;;;;;;;1.80;1.20;;;;;;;;;;5032082;28;20049;-65
2021/06/24 09:41:38;;;;;;;1.83;1.20;;;;;;;;;;5045549;28;20072;-64
2021/06/24 09:44:21;;;;;;;5.35;1.23;;;;;;;;;;5051758;28;20083;-64
2021/06/24 09:46:54;;;;;;;1.90;1.23;;;;;;;;;;5046747;28;20049;-64
2021/06/24 09:49:27;;;;;;;1.27;1.10;;;;;;;;;;5047473;28;20448;-63
2021/06/24 09:51:57;;;;;;;2.97;1.38;;;;;;;;;;5041593;28;20511;-64
2021/06/24 09:54:36;;;;;;;3.47;1.10;;;;;;;;;;5046435;28;20110;-64
2021/06/24 09:57:05;;;;;;;1.70;1.10;;;;;;;;;;5043486;28;20041;-65
2021/06/24 09:59:35;;;;;;;2.08;1.60;;;;;;;;;;5047518;28;20117;-65
2021/06/24 10:02:09;;;;;;;2.33;1.40;;;;;;;;;;5043526;28;20057;-65
2021/06/24 10:04:39;;;;;;;2.85;1.40;;;;;;;;;;5045023;28;20424;-65
2021/06/24 10:07:09;;;;;;;1.52;1.20;;;;;;;;;;5043927;28;20473;-64
2021/06/24 10:09:39;;;;;;;1.98;1.20;;;;;;;;;;5045516;28;20048;-64
2021/06/24 10:12:09;;;;;;;1.88;1.30;;;;;;;;;;5044344;28;20602;-64
2021/06/24 10:14:39;;;;;;;2.25;1.60;;;;;;;;;;5043868;28;20052;-65
2021/06/24 10:17:09;;;;;;;1.33;1.05;;;;;;;;;;5044847;28;20536;-64
2021/06/24 10:19:38;;;;;;;2.03;1.05;;;;;;;;;;5042008;28;20053;-64
2021/06/24 10:22:12;;;;;;;1.75;1.20;;;;;;;;;;5040748;28;20492;-64
2021/06/24 10:24:42;;;;;;;1.83;1.00;;;;;;;;;;5044355;28;20045;-64
2021/06/24 10:27:11;;;;;;;2.70;1.38;;;;;;;;;;5047945;28;20041;-64
2021/06/24 10:29:44;;;;;;;1.27;1.08;;;;;;;;;;5040292;28;20350;-64
2021/06/24 10:32:28;;;;;;;1.83;1.33;;;;;;;;;;5036943;28;20340;-62
2021/06/24 10:34:57;;;;;;;2.60;1.60;;;;;;;;;;5041550;28;20126;-62
2021/06/24 10:37:27;;;;;;;2.80;1.25;;;;;;;;;;5043877;28;20040;-62
2021/06/24 10:39:57;;;;;;;1.30;1.20;;;;;;;;;;5038040;28;20041;-62
2021/06/24 10:42:28;;;;;;;2.97;1.40;;;;;;;;;;5048261;28;20531;-62
2021/06/24 10:44:58;;;;;;;1.48;1.08;;;;;;;;;;5048148;28;20100;-62
2021/06/24 10:47:46;;;;;;;1.52;1.00;;;;;;;;;;5049039;28;20072;-62
2021/06/24 10:50:33;;;;;;;2.83;1.35;;;;;;;;;;5038447;28;20053;-62
2021/06/24 10:53:25;;;;;;;1.42;1.00;;;;;;;;;;5040221;28;20124;-62
2021/06/24 10:55:54;;;;;;;2.38;1.40;;;;;;;;;;5048147;28;20050;-63
2021/06/24 10:58:35;;;;;;;2.75;1.20;;;;;;;;;;5046827;28;20554;-61
2021/06/24 11:01:05;;;;;;;4.65;1.30;;;;;;;;;;5044276;28;20057;-61
2021/06/24 11:03:40;;;;;;;1.58;1.10;;;;;;;;;;5048249;28;20045;-61
2021/06/24 11:06:10;;;;;;;3.75;1.20;;;;;;;;;;5043836;28;20136;-61
2021/06/24 11:08:41;;;;;;;1.48;1.10;;;;;;;;;;5040911;28;20045;-61
2021/06/24 11:11:10;;;;;;;1.55;1.10;;;;;;;;;;5044115;28;20052;-61
2021/06/24 11:13:46;;;;;;;4.57;1.25;;;;;;;;;;5048277;28;20041;-61
2021/06/24 11:16:29;;;;;;;1.88;1.13;;;;;;;;;;5047711;28;20111;-61
2021/06/24 11:19:01;;;;;;;2.20;1.25;;;;;;;;;;5048144;28;20140;-61
2021/06/24 11:21:44;;;;;;;3.25;1.48;;;;;;;;;;5047423;28;20053;-61
2021/06/24 11:24:18;;;;;;;1.80;1.27;;;;;;;;;;5049656;28;20053;-61
2021/06/24 11:26:48;;;;;;;2.90;1.50;;;;;;;;;;5050207;28;20083;-61
2021/06/24 11:29:31;;;;;;;2.55;1.17;;;;;;;;;;5048728;28;20106;-61
2021/06/24 11:32:05;;;;;;;4.60;1.73;;;;;;;;;;5050885;28;20059;-61
2021/06/24 11:34:39;;;;;;;1.98;1.20;;;;;;;;;;5034955;28;20037;-60
2021/06/24 11:37:09;;;;;;;1.77;1.30;;;;;;;;;;5039937;28;20057;-60
2021/06/24 11:39:40;;;;;;;3.28;1.30;;;;;;;;;;5050222;28;20054;-60
2021/06/24 11:42:09;;;;;;;4.60;1.40;;;;;;;;;;5048881;28;20138;-60
2021/06/24 11:44:41;;;;;;;1.80;1.20;;;;;;;;;;5044928;28;20085;-60
2021/06/24 11:47:12;;;;;;;4.65;1.52;;;;;;;;;;5039816;28;20057;-60
2021/06/24 12:03:55;;;;;;;1.38;1.20;;;;;;;;;;5025843;28;20068;-61
2021/06/24 12:06:24;;;;;;;1.20;1.10;;;;;;;;;;5048819;28;20142;-62
2021/06/24 12:08:59;;;;;;;4.10;1.77;;;;;;;;;;5050085;28;20037;-63
2021/06/24 12:11:36;;;;;;;3.13;1.50;;;;;;;;;;5045053;28;20080;-60
2021/06/24 12:14:18;;;;;;;2.63;1.60;;;;;;;;;;5050552;28;20051;-60
2021/06/24 12:17:05;;;;;;;2.00;1.40;;;;;;;;;;5043653;28;20052;-60
2021/06/24 12:19:42;;;;;;;2.60;1.50;;;;;;;;;;5045615;28;20064;-60
2021/06/24 12:22:13;;;;;;;1.60;1.40;;;;;;;;;;5042976;28;20473;-60
2021/06/24 12:24:41;;;;;;;2.00;1.60;;;;;;;;;;5047915;28;20538;-60
2021/06/24 12:27:22;;;;;;;2.28;2.05;;;;;;;;;;5047841;28;20105;-60
2021/06/24 12:29:52;;;;;;;2.33;1.70;;;;;;;;;;5049752;28;20045;-60
2021/06/24 12:32:21;;;;;;;2.97;1.50;;;;;;;;;;5050099;28;20086;-60
2021/06/24 12:34:50;;;;;;;2.10;1.75;;;;;;;;;;5045691;28;20081;-60
2021/06/24 12:37:35;;;;;;;3.53;1.70;;;;;;;;;;5040500;28;20489;-60
2021/06/24 12:40:07;;;;;;;2.40;1.63;;;;;;;;;;5048710;28;20096;-60
2021/06/24 12:42:52;;;;;;;2.60;1.52;;;;;;;;;;2808022;28;10002426;-60
2021/06/24 12:45:41;;;;;;;2.13;1.70;;;;;;;;;;3654301;28;10001270;-60
2021/06/24 12:48:24;;;;;;;3.80;1.63;;;;;;;;;;5048090;28;20052;-60
2021/06/24 12:50:53;;;;;;;2.15;1.75;;;;;;;;;;5046685;28;20049;-61
2021/06/24 12:53:29;;;;;;;2.85;1.80;;;;;;;;;;5049227;28;20493;-61
2021/06/24 12:55:57;;;;;;;5.15;1.80;;;;;;;;;;5045726;28;20087;-61
2021/06/24 12:58:37;;;;;;;2.78;2.00;;;;;;;;;;5043170;28;20406;-60
2021/06/24 13:01:11;;;;;;;4.43;1.65;;;;;;;;;;5040918;28;20056;-60
2021/06/24 13:03:42;;;;;;;5.35;2.00;;;;;;;;;;5046350;28;20061;-61
2021/06/24 13:06:11;;;;;;;3.53;1.90;;;;;;;;;;5032722;28;20144;-61
2021/06/24 13:08:50;;;;;;;2.45;1.60;;;;;;;;;;5045396;28;20372;-60
2021/06/24 13:11:20;;;;;;;2.67;1.80;;;;;;;;;;5047048;28;20048;-60
2021/06/24 13:13:55;;;;;;;2.10;1.77;;;;;;;;;;5045226;28;20077;-60
2021/06/24 13:16:29;;;;;;;5.18;1.88;;;;;;;;;;5049202;28;20059;-60
2021/06/24 13:18:58;;;;;;;2.75;1.80;;;;;;;;;;5050633;28;20045;-60
2021/06/24 13:21:27;;;;;;;3.63;2.00;;;;;;;;;;5048144;28;20141;-60
2021/06/24 13:24:09;;;;;;;2.20;2.00;;;;;;;;;;5051118;28;20098;-60
2021/06/24 13:26:40;;;;;;;2.63;1.80;;;;;;;;;;5044443;28;20459;-60
2021/06/24 13:29:16;;;;;;;2.95;1.80;;;;;;;;;;5039829;28;20455;-60
2021/06/24 13:31:46;;;;;;;2.55;1.48;;;;;;;;;;5033088;28;20049;-60
2021/06/24 13:34:15;;;;;;;2.22;1.70;;;;;;;;;;5038061;28;20044;-60
2021/06/24 13:36:44;;;;;;;2.92;1.63;;;;;;;;;;5048499;28;20050;-60
2021/06/24 13:39:14;;;;;;;3.70;1.70;;;;;;;;;;5049670;28;20160;-60
2021/06/24 13:41:44;;;;;;;2.38;1.33;;;;;;;;;;5052473;28;20095;-60
2021/06/24 13:44:15;;;;;;;2.47;1.45;;;;;;;;;;5052079;28;20053;-60
2021/06/24 13:46:45;;;;;;;1.70;1.40;;;;;;;;;;5048350;28;20065;-60
2021/06/24 13:49:14;;;;;;;3.47;1.45;;;;;;;;;;5047657;28;20424;-60
2021/06/24 13:51:47;;;;;;;1.90;1.20;;;;;;;;;;5046175;28;20099;-60
2021/06/24 13:54:17;;;;;;;1.30;1.20;;;;;;;;;;5049245;28;20072;-60
2021/06/24 13:56:47;;;;;;;1.67;1.10;;;;;;;;;;5049594;28;20397;-60
2021/06/24 13:59:17;;;;;;;3.03;1.13;;;;;;;;;;5049011;28;20171;-60
2021/06/24 14:01:47;;;;;;;3.65;1.30;;;;;;;;;;5048238;28;20123;-60
2021/06/24 14:04:16;;;;;;;1.45;1.10;;;;;;;;;;5043713;28;20465;-60
2021/06/24 14:06:46;;;;;;;2.28;1.48;;;;;;;;;;5049632;28;20413;-60
2021/06/24 14:09:15;;;;;;;3.38;1.30;;;;;;;;;;5043218;28;20128;-60
2021/06/24 14:11:44;;;;;;;1.33;1.23;;;;;;;;;;5044687;28;20049;-60
2021/06/24 14:14:13;;;;;;;2.17;1.25;;;;;;;;;;5048629;28;20061;-60
2021/06/24 14:16:43;;;;;;;1.15;1.00;;;;;;;;;;5042570;28;20052;-60
2021/06/24 14:19:18;;;;;;;2.63;1.40;;;;;;;;;;5049666;28;20428;-60
2021/06/24 14:21:47;;;;;;;3.17;1.50;;;;;;;;;;5044939;28;20105;-60
2021/06/24 14:24:16;;;;;;;1.55;1.25;;;;;;;;;;5048681;28;20059;-60
2021/06/24 14:26:45;;;;;;;1.63;1.08;;;;;;;;;;5044088;28;20060;-60
2021/06/24 14:29:13;;;;;;;2.20;1.52;;;;;;;;;;5047036;28;20110;-60
2021/06/24 14:31:43;;;;;;;1.50;1.40;;;;;;;;;;5040296;28;20147;-60
2021/06/24 14:34:13;;;;;;;3.05;1.55;;;;;;;;;;5043112;28;20055;-60
2021/06/24 14:36:42;;;;;;;2.33;1.40;;;;;;;;;;5044593;28;20340;-60
2021/06/24 14:39:12;;;;;;;2.33;1.30;;;;;;;;;;5045612;28;20179;-61
2021/06/24 14:41:41;;;;;;;2.13;1.20;;;;;;;;;;5044927;28;20045;-60
2021/06/24 14:44:10;;;;;;;1.52;1.42;;;;;;;;;;5043523;28;20037;-61
2021/06/24 14:46:39;;;;;;;1.85;1.20;;;;;;;;;;5041668;28;20098;-61
2021/06/24 14:49:29;;;;;;;1.40;1.23;;;;;;;;;;5049015;28;20136;-60
2021/06/24 14:51:59;;;;;;;2.92;1.30;;;;;;;;;;5047821;28;20048;-60
2021/06/24 14:54:27;;;;;;;4.18;1.63;;;;;;;;;;5045607;28;20540;-60
2021/06/24 14:56:56;;;;;;;1.60;1.50;;;;;;;;;;5048672;28;20341;-60
2021/06/24 14:59:26;;;;;;;9.45;1.85;;;;;;;;;;5047586;28;20540;-60
2021/06/24 15:01:55;;;;;;;4.03;1.45;;;;;;;;;;5047691;28;20052;-61
2021/06/24 15:04:24;;;;;;;2.42;1.33;;;;;;;;;;5040954;28;20053;-61
2021/06/24 15:06:53;;;;;;;1.40;1.23;;;;;;;;;;5034604;28;20143;-60
2021/06/24 15:09:22;;;;;;;3.35;1.90;;;;;;;;;;5044172;28;20053;-61
2021/06/24 15:11:51;;;;;;;3.88;1.58;;;;;;;;;;5056793;28;20045;-60
2021/06/24 15:14:20;;;;;;;3.47;1.50;;;;;;;;;;5048390;28;20045;-60
2021/06/24 15:16:48;;;;;;;4.72;1.58;;;;;;;;;;5048125;28;20306;-61